Time;durP1;ratioP1;P1;durP2;ratioP2;P2;SDS_P1;SDS_P2;PMS_P1;PMS_P2;Temp;Humidity;BMP_temperature;BMP_pressure;BME280_temperature;BME280_humidity;BME280_pressure;Samples;Min_cycle;Max_cycle;Signal;HPM_P1;HPM_P2
2023/01/09 00:00:15;;;;;;;39.23;22.87;;;;;;;1.82;nan;95365.13;5087358;28;20224;-67
2023/01/09 00:02:43;;;;;;;40.70;23.00;;;;;;;1.87;nan;95358.47;5086529;28;20882;-68
2023/01/09 00:05:11;;;;;;;36.83;22.87;;;;;;;1.89;nan;95364.34;5086089;28;20194;-68
2023/01/09 00:07:38;;;;;;;43.53;23.80;;;;;;;1.85;nan;95361.81;5086308;28;20197;-69
2023/01/09 00:10:06;;;;;;;37.53;21.23;;;;;;;1.81;nan;95360.13;5088112;28;21207;-68
2023/01/09 00:12:34;;;;;;;40.90;22.00;;;;;;;1.81;nan;95355.94;5089828;28;20294;-68
2023/01/09 00:15:01;;;;;;;38.73;22.10;;;;;;;1.63;nan;95355.84;5087234;28;20201;-68
2023/01/09 00:17:29;;;;;;;40.30;22.73;;;;;;;1.64;nan;95352.53;5086175;28;20197;-67
2023/01/09 00:19:57;;;;;;;37.73;22.40;;;;;;;1.60;nan;95355.84;5086456;28;20205;-67
2023/01/09 00:22:24;;;;;;;39.23;22.50;;;;;;;1.48;nan;95354.13;5086011;28;20204;-67
2023/01/09 00:24:50;;;;;;;40.95;21.40;;;;;;;1.53;nan;95346.59;5087749;28;20201;-68
2023/01/09 00:27:17;;;;;;;39.30;22.63;;;;;;;1.50;nan;95344.91;5087888;28;20197;-68
2023/01/09 00:29:44;;;;;;;33.57;20.80;;;;;;;1.56;nan;95346.63;5087161;28;20679;-68
2023/01/09 00:32:11;;;;;;;42.27;22.37;;;;;;;1.44;nan;95357.44;5087135;28;20209;-68
2023/01/09 00:34:40;;;;;;;37.50;21.50;;;;;;;1.47;nan;95349.94;5087322;28;20573;-68
2023/01/09 00:37:10;;;;;;;38.17;21.60;;;;;;;1.54;nan;95358.31;5086522;28;20209;-68
2023/01/09 00:39:37;;;;;;;35.23;21.43;;;;;;;1.60;nan;95351.66;5086928;28;20202;-69
2023/01/09 00:42:06;;;;;;;39.80;22.83;;;;;;;1.61;nan;95347.50;5087305;28;20483;-67
2023/01/09 00:44:38;;;;;;;36.03;21.13;;;;;;;1.67;nan;95350.03;5086153;28;20281;-68
2023/01/09 00:47:09;;;;;;;40.77;22.30;;;;;;;1.64;nan;95345.84;5087343;28;20201;-68
2023/01/09 00:49:37;;;;;;;38.10;20.35;;;;;;;1.68;nan;95349.22;5086865;28;20193;-69
2023/01/09 00:52:07;;;;;;;34.90;21.20;;;;;;;1.66;nan;95353.38;5085975;28;21009;-68
2023/01/09 00:54:34;;;;;;;33.53;19.30;;;;;;;1.64;nan;95345.00;5086827;28;20197;-67
2023/01/09 00:57:01;;;;;;;41.37;22.10;;;;;;;1.75;nan;95345.88;5086665;28;20228;-67
2023/01/09 00:59:28;;;;;;;36.93;22.83;;;;;;;1.66;nan;95343.34;5085827;28;20204;-67
2023/01/09 01:01:55;;;;;;;33.87;20.50;;;;;;;1.53;nan;95346.59;5086339;28;20200;-67
2023/01/09 01:09:52;;;;;;;36.77;20.83;;;;;;;1.65;nan;95341.69;5085380;28;20196;-67
2023/01/09 01:12:18;;;;;;;30.40;20.07;;;;;;;1.63;nan;95344.19;5086129;28;20237;-68
2023/01/09 01:14:45;;;;;;;31.67;18.97;;;;;;;1.73;nan;95335.03;5085837;28;20194;-68
2023/01/09 01:17:12;;;;;;;32.95;21.08;;;;;;;1.68;nan;95337.53;5086735;28;20286;-67
2023/01/09 01:19:38;;;;;;;34.43;21.53;;;;;;;1.60;nan;95325.78;5085790;28;20214;-67
2023/01/09 01:22:05;;;;;;;34.07;21.03;;;;;;;1.61;nan;95327.47;5086348;28;20194;-67
2023/01/09 01:24:33;;;;;;;40.47;22.40;;;;;;;1.75;nan;95330.84;5086303;28;20217;-68
2023/01/09 01:27:00;;;;;;;34.17;20.93;;;;;;;1.64;nan;95330.81;5086733;28;20271;-67
2023/01/09 01:29:27;;;;;;;36.70;21.17;;;;;;;1.56;nan;95331.59;5085802;28;20193;-68
2023/01/09 01:31:54;;;;;;;43.90;22.57;;;;;;;1.57;nan;95325.75;5086040;28;20206;-68
2023/01/09 01:34:20;;;;;;;31.33;20.48;;;;;;;1.56;nan;95322.41;5085787;28;20645;-68
2023/01/09 01:36:47;;;;;;;38.87;21.73;;;;;;;1.53;nan;95314.03;5085212;28;20743;-68
2023/01/09 01:39:14;;;;;;;35.47;20.67;;;;;;;1.50;nan;95319.88;5086893;28;20202;-68
2023/01/09 01:41:42;;;;;;;36.97;20.87;;;;;;;1.46;nan;95308.19;5086530;28;20205;-68
2023/01/09 01:44:41;;;;;;;36.87;22.17;;;;;;;1.56;nan;95304.03;5085809;28;20256;-67
2023/01/09 01:47:08;;;;;;;37.33;21.23;;;;;;;1.50;nan;95291.50;5085290;28;20190;-68
2023/01/09 01:49:35;;;;;;;34.20;20.77;;;;;;;1.55;nan;95297.38;5086606;28;20547;-68
2023/01/09 01:52:02;;;;;;;42.00;22.67;;;;;;;1.57;nan;95295.72;5085918;28;20735;-66
2023/01/09 01:54:31;;;;;;;31.77;20.63;;;;;;;1.46;nan;95287.31;5085722;28;20194;-67
2023/01/09 01:57:03;;;;;;;39.57;20.97;;;;;;;1.45;nan;95290.66;5087282;28;20275;-70
2023/01/09 01:59:36;;;;;;;35.80;21.10;;;;;;;1.39;nan;95275.59;5088462;28;20194;-67
2023/01/09 02:02:04;;;;;;;33.63;19.87;;;;;;;1.45;nan;95288.16;5085010;28;20198;-67
2023/01/09 02:04:34;;;;;;;29.07;21.83;;;;;;;1.39;nan;95280.59;5084370;28;20201;-67
2023/01/09 02:07:04;;;;;;;35.03;20.87;;;;;;;1.53;nan;95286.50;5085067;28;20217;-67
2023/01/09 02:09:31;;;;;;;38.93;21.33;;;;;;;1.41;nan;95267.25;5084686;28;20262;-67
2023/01/09 02:12:00;;;;;;;36.90;22.93;;;;;;;1.61;nan;95279.88;5087880;28;20225;-67
2023/01/09 02:14:31;;;;;;;42.20;24.00;;;;;;;1.68;nan;95269.06;5090427;28;20198;-68
2023/01/09 02:17:07;;;;;;;42.35;25.48;;;;;;;1.73;nan;95274.09;5099054;28;20217;-67
2023/01/09 02:20:05;;;;;;;40.60;23.73;;;;;;;1.76;nan;95276.56;5089462;28;20675;-68
2023/01/09 02:22:44;;;;;;;55.67;25.63;;;;;;;1.61;nan;95272.34;5089357;28;20194;-67
2023/01/09 02:25:34;;;;;;;46.87;27.07;;;;;;;1.62;nan;95279.03;5089441;28;20679;-66
2023/01/09 02:28:41;;;;;;;41.37;25.00;;;;;;;1.51;nan;95278.97;5089016;28;20194;-67
2023/01/09 02:31:14;;;;;;;45.08;24.52;;;;;;;1.45;nan;95281.47;5034198;28;20705;-67
2023/01/09 02:33:53;;;;;;;42.40;26.17;;;;;;;1.44;nan;95272.28;5088011;28;20217;-67
2023/01/09 02:36:28;;;;;;;47.10;26.47;;;;;;;1.48;nan;95271.47;5090172;28;20270;-67
2023/01/09 02:39:10;;;;;;;42.57;26.03;;;;;;;1.36;nan;95272.25;5090245;28;20197;-68
2023/01/09 02:41:43;;;;;;;46.40;24.93;;;;;;;1.36;nan;95262.22;5090604;28;20578;-67
2023/01/09 02:44:15;;;;;;;39.93;24.37;;;;;;;1.55;nan;95257.28;5087945;28;20643;-68
2023/01/09 02:46:44;;;;;;;41.67;26.00;;;;;;;1.43;nan;95254.75;5083894;28;20285;-69
2023/01/09 02:49:11;;;;;;;42.30;24.83;;;;;;;1.38;nan;95258.91;5078732;28;20197;-69
2023/01/09 02:51:45;;;;;;;50.13;25.33;;;;;;;1.39;nan;95256.41;5070805;28;20206;-69
2023/01/09 02:54:23;;;;;;;47.80;26.47;;;;;;;1.31;nan;95256.34;5071139;28;20209;-67
2023/01/09 02:57:10;;;;;;;36.90;24.10;;;;;;;1.19;nan;95256.31;5070555;28;20602;-69
2023/01/09 02:59:47;;;;;;;39.30;24.00;;;;;;;1.23;nan;95255.50;5070065;28;20202;-68
2023/01/09 03:02:33;;;;;;;37.77;23.23;;;;;;;1.15;nan;95264.63;5070240;28;20194;-69
2023/01/09 03:05:08;;;;;;;38.43;23.40;;;;;;;1.15;nan;95261.28;5069214;28;20259;-69
2023/01/09 03:07:41;;;;;;;43.87;22.43;;;;;;;1.07;nan;95263.72;5070181;28;20194;-69
2023/01/09 03:10:16;;;;;;;40.20;22.67;;;;;;;1.08;nan;95240.38;5071353;28;20259;-69
2023/01/09 03:12:44;;;;;;;38.20;24.17;;;;;;;1.10;nan;95253.75;5071093;28;20271;-69
2023/01/09 03:15:14;;;;;;;40.17;22.67;;;;;;;1.07;nan;95252.88;5070510;28;20231;-69
2023/01/09 03:17:45;;;;;;;37.43;23.50;;;;;;;0.97;nan;95252.84;5071511;28;20284;-69
2023/01/09 03:20:16;;;;;;;36.87;22.20;;;;;;;0.92;nan;95253.63;5071424;28;20202;-69
2023/01/09 03:22:52;;;;;;;37.93;23.70;;;;;;;0.74;nan;95261.03;5069901;28;20732;-68
2023/01/09 03:25:19;;;;;;;39.77;23.63;;;;;;;0.84;nan;95270.25;5071747;28;20578;-68
2023/01/09 03:27:46;;;;;;;39.63;23.13;;;;;;;0.90;nan;95266.13;5070755;28;20199;-68
2023/01/09 03:30:13;;;;;;;39.23;24.77;;;;;;;1.05;nan;95255.38;5070966;28;20260;-70
2023/01/09 03:32:40;;;;;;;50.73;27.70;;;;;;;0.98;nan;95268.69;5070977;28;20664;-67
2023/01/09 03:35:09;;;;;;;54.07;27.17;;;;;;;0.96;nan;95260.34;5072828;28;20206;-68
2023/01/09 03:37:35;;;;;;;44.17;25.07;;;;;;;1.14;nan;95252.09;5073888;28;20222;-71
2023/01/09 03:40:02;;;;;;;43.83;25.43;;;;;;;1.14;nan;95255.44;5071078;28;20695;-68
2023/01/09 03:42:29;;;;;;;50.70;25.80;;;;;;;1.11;nan;95254.56;5080931;28;20664;-70
2023/01/09 03:44:55;;;;;;;42.17;23.77;;;;;;;1.16;nan;95253.78;5072525;28;20255;-70
2023/01/09 03:47:22;;;;;;;45.27;25.90;;;;;;;1.17;nan;95252.97;5071226;28;20198;-70
2023/01/09 03:49:49;;;;;;;49.10;27.60;;;;;;;1.15;nan;95256.28;5070880;28;20210;-69
2023/01/09 03:52:17;;;;;;;54.05;27.13;;;;;;;1.26;nan;95264.66;5071303;28;20198;-69
2023/01/09 03:54:43;;;;;;;53.13;26.63;;;;;;;1.32;nan;95262.19;5072848;28;20206;-68
2023/01/09 03:57:10;;;;;;;42.13;25.10;;;;;;;1.38;nan;95258.91;5091114;28;20221;-68
2023/01/09 03:59:37;;;;;;;44.33;25.97;;;;;;;1.30;nan;95262.19;5091117;28;20259;-68
2023/01/09 04:02:04;;;;;;;47.07;26.70;;;;;;;1.53;nan;95258.94;5090923;28;20205;-67
2023/01/09 04:04:30;;;;;;;52.00;26.67;;;;;;;1.56;nan;95253.97;5092312;28;20235;-70
2023/01/09 04:06:57;;;;;;;45.67;25.60;;;;;;;1.57;nan;95253.13;5093272;28;20214;-69
2023/01/09 04:09:25;;;;;;;47.97;25.30;;;;;;;1.52;nan;95242.25;5091490;28;20194;-68
2023/01/09 04:11:52;;;;;;;42.50;24.77;;;;;;;1.49;nan;95253.09;5090303;28;20233;-68
2023/01/09 04:14:19;;;;;;;40.53;24.40;;;;;;;1.36;nan;95247.19;5090748;28;20706;-68
2023/01/09 04:16:45;;;;;;;52.63;27.87;;;;;;;1.30;nan;95252.16;5090696;28;20233;-69
2023/01/09 04:19:12;;;;;;;52.80;28.43;;;;;;;1.26;nan;95250.47;5091001;28;20201;-68
2023/01/09 04:21:39;;;;;;;56.23;28.43;;;;;;;1.34;nan;95248.84;5090224;28;20202;-68
2023/01/09 04:24:06;;;;;;;46.67;28.20;;;;;;;1.54;nan;95250.59;5090311;28;20208;-69
2023/01/09 04:26:34;;;;;;;55.13;27.97;;;;;;;1.41;nan;95251.41;5090732;28;20204;-69
2023/01/09 04:29:01;;;;;;;56.43;28.70;;;;;;;1.15;nan;95246.25;5090761;28;20202;-69
2023/01/09 04:31:28;;;;;;;55.07;28.00;;;;;;;1.14;nan;95247.09;5090358;28;20846;-68
2023/01/09 04:33:54;;;;;;;62.13;30.60;;;;;;;1.11;nan;95245.41;5089963;28;20197;-67
2023/01/09 04:36:21;;;;;;;55.77;29.40;;;;;;;1.09;nan;95247.06;5090653;28;20201;-68
2023/01/09 04:38:48;;;;;;;57.50;31.53;;;;;;;1.15;nan;95236.25;5090283;28;20201;-67
2023/01/09 04:41:47;;;;;;;55.47;31.13;;;;;;;1.07;nan;95237.88;5090821;28;20197;-70
2023/01/09 04:44:03;;;;;;;56.93;30.17;;;;;;;1.08;nan;95240.38;5090222;28;20204;-67
2023/01/09 04:46:30;;;;;;;55.33;28.77;;;;;;;1.00;nan;95235.31;5090327;28;20204;-68
2023/01/09 04:48:57;;;;;;;53.87;30.93;;;;;;;0.98;nan;95239.50;5089947;28;20205;-69
2023/01/09 04:51:23;;;;;;;51.80;29.40;;;;;;;1.05;nan;95240.34;5090511;28;20198;-69
2023/01/09 04:53:50;;;;;;;58.27;29.97;;;;;;;0.99;nan;95235.34;5089907;28;20208;-68
2023/01/09 04:56:17;;;;;;;50.70;29.77;;;;;;;1.21;nan;95234.63;5089849;28;20198;-68
2023/01/09 04:58:43;;;;;;;53.10;29.80;;;;;;;1.06;nan;95236.19;5090608;28;20263;-69
2023/01/09 05:01:11;;;;;;;57.77;30.40;;;;;;;0.91;nan;95237.78;5090133;28;20449;-68
2023/01/09 05:03:38;;;;;;;60.57;32.17;;;;;;;0.83;nan;95229.38;5090246;28;20194;-69
2023/01/09 05:06:05;;;;;;;60.57;29.30;;;;;;;0.88;nan;95231.91;5090041;28;20206;-69
2023/01/09 05:08:32;;;;;;;56.23;30.67;;;;;;;0.89;nan;95228.59;5089443;28;20666;-69
2023/01/09 05:10:59;;;;;;;50.27;27.80;;;;;;;0.87;nan;95230.25;5089989;28;20240;-71
2023/01/09 05:13:26;;;;;;;50.23;28.80;;;;;;;0.97;nan;95234.50;5089013;28;20729;-68
2023/01/09 05:15:52;;;;;;;59.07;30.43;;;;;;;0.95;nan;95244.50;5089789;28;20194;-69
2023/01/09 05:18:20;;;;;;;52.10;29.33;;;;;;;0.93;nan;95240.31;5089378;28;20607;-69
2023/01/09 05:20:47;;;;;;;45.63;28.20;;;;;;;0.96;nan;95245.31;5089978;28;20626;-69
2023/01/09 05:23:14;;;;;;;89.80;43.20;;;;;;;1.01;nan;95248.66;5089837;28;20646;-69
2023/01/09 05:25:40;;;;;;;59.50;36.27;;;;;;;1.03;nan;95247.00;5089906;28;20202;-69
2023/01/09 05:28:07;;;;;;;53.67;29.70;;;;;;;1.07;nan;95248.72;5090302;28;20272;-69
2023/01/09 05:30:34;;;;;;;55.47;29.57;;;;;;;1.05;nan;95242.84;5091325;28;20193;-70
2023/01/09 05:33:01;;;;;;;53.33;28.50;;;;;;;0.99;nan;95246.16;5089871;28;20274;-67
2023/01/09 05:35:29;;;;;;;57.27;28.70;;;;;;;0.75;nan;95240.16;5077639;28;20203;-70
2023/01/09 05:37:55;;;;;;;54.33;27.90;;;;;;;0.74;nan;95243.50;5068808;28;20226;-68
2023/01/09 05:40:22;;;;;;;50.30;30.97;;;;;;;0.74;nan;95223.50;5069728;28;20281;-68
2023/01/09 05:42:49;;;;;;;62.70;29.87;;;;;;;0.84;nan;95230.22;5069898;28;20206;-70
2023/01/09 05:45:16;;;;;;;49.10;29.10;;;;;;;0.81;nan;95230.19;5069425;28;20595;-70
2023/01/09 05:47:44;;;;;;;59.57;35.80;;;;;;;0.86;nan;95228.56;5072388;28;20247;-69
2023/01/09 05:50:12;;;;;;;52.13;29.10;;;;;;;1.03;nan;95216.97;5073439;28;20199;-68
2023/01/09 05:52:40;;;;;;;51.27;29.90;;;;;;;0.97;nan;95226.97;5073680;28;20194;-69
2023/01/09 05:55:08;;;;;;;64.37;29.87;;;;;;;0.81;nan;95227.69;5072684;28;20198;-68
2023/01/09 05:57:35;;;;;;;59.50;30.87;;;;;;;0.87;nan;95230.25;5073499;28;20226;-68
2023/01/09 06:00:02;;;;;;;57.23;31.77;;;;;;;0.98;nan;95231.16;5072741;28;20198;-69
2023/01/09 06:02:29;;;;;;;58.40;33.30;;;;;;;1.24;nan;95232.09;5072962;28;20260;-69
2023/01/09 06:04:55;;;;;;;59.37;32.00;;;;;;;1.29;nan;95227.97;5072764;28;20198;-68
2023/01/09 06:07:22;;;;;;;54.00;30.57;;;;;;;1.34;nan;95218.81;5072713;28;20198;-68
2023/01/09 06:09:50;;;;;;;56.27;29.90;;;;;;;1.45;nan;95215.53;5072222;28;20194;-69
2023/01/09 06:12:17;;;;;;;47.13;28.37;;;;;;;1.50;nan;95214.69;5072636;28;20242;-69
2023/01/09 06:14:43;;;;;;;48.57;29.50;;;;;;;1.58;nan;95207.22;5072835;28;20260;-68
2023/01/09 06:17:10;;;;;;;57.77;30.90;;;;;;;1.81;nan;95212.28;5072704;28;20226;-70
2023/01/09 06:19:37;;;;;;;61.87;30.80;;;;;;;1.98;nan;95208.16;5072778;28;20199;-69
2023/01/09 06:22:04;;;;;;;53.07;30.20;;;;;;;2.05;nan;95215.66;5072559;28;20229;-69
2023/01/09 06:24:30;;;;;;;61.10;29.00;;;;;;;2.07;nan;95212.34;5072682;28;20199;-70
2023/01/09 06:26:58;;;;;;;53.33;27.67;;;;;;;2.08;nan;95207.31;5072114;28;20263;-69
2023/01/09 06:29:25;;;;;;;46.50;27.03;;;;;;;2.16;nan;95207.34;5072636;28;20252;-69
2023/01/09 06:31:52;;;;;;;52.83;27.87;;;;;;;2.22;nan;95212.38;5072431;28;20631;-69
2023/01/09 06:34:18;;;;;;;44.37;28.07;;;;;;;2.39;nan;95215.72;5072332;28;20206;-69
2023/01/09 06:36:45;;;;;;;41.93;26.27;;;;;;;2.55;nan;95212.34;5072020;28;20198;-70
2023/01/09 06:39:12;;;;;;;47.53;26.67;;;;;;;2.71;nan;95198.97;5072200;28;20210;-70
2023/01/09 06:41:39;;;;;;;44.27;26.53;;;;;;;2.89;nan;95209.81;5072546;28;20194;-69
2023/01/09 06:44:07;;;;;;;43.87;28.03;;;;;;;2.99;nan;95208.94;5072394;28;20205;-68
2023/01/09 06:46:34;;;;;;;53.37;29.57;;;;;;;3.18;nan;95214.78;5072548;28;20202;-70
2023/01/09 06:49:01;;;;;;;57.72;30.35;;;;;;;3.29;nan;95216.41;5071858;28;20195;-68
2023/01/09 06:51:27;;;;;;;62.07;34.67;;;;;;;3.46;nan;95210.50;5072001;28;20210;-69
2023/01/09 06:53:54;;;;;;;61.42;39.05;;;;;;;3.53;nan;95209.63;5071899;28;20202;-69
2023/01/09 06:56:21;;;;;;;75.25;41.60;;;;;;;3.68;nan;95217.09;5071873;28;20256;-70
2023/01/09 06:58:47;;;;;;;69.40;37.93;;;;;;;3.87;nan;95208.63;5071385;28;20226;-69
2023/01/09 07:01:15;;;;;;;61.50;37.20;;;;;;;4.06;nan;95212.69;5071776;28;20673;-69
2023/01/09 07:03:42;;;;;;;78.68;43.50;;;;;;;4.35;nan;95211.66;5072196;28;20202;-70
2023/01/09 07:06:09;;;;;;;92.28;50.78;;;;;;;4.70;nan;95207.16;5071727;28;20298;-69
2023/01/09 07:08:36;;;;;;;100.68;56.35;;;;;;;5.16;nan;95219.34;5071360;28;20622;-70
2023/01/09 07:11:03;;;;;;;114.75;60.15;;;;;;;5.59;nan;95207.09;5071489;28;20234;-70
2023/01/09 07:13:29;;;;;;;117.18;62.95;;;;;;;6.39;nan;95202.69;5071694;28;20222;-69
2023/01/09 07:15:56;;;;;;;117.10;69.40;;;;;;;8.01;nan;95200.53;5071398;28;20276;-69
2023/01/09 07:18:24;;;;;;;101.00;55.83;;;;;;;10.13;nan;95183.28;5071963;28;20231;-70
2023/01/09 07:20:51;;;;;;;94.85;50.45;;;;;;;12.17;nan;95184.00;5071640;28;20199;-69
2023/01/09 07:23:17;;;;;;;96.82;52.03;;;;;;;13.46;nan;95185.59;5071648;28;20267;-69
2023/01/09 07:25:45;;;;;;;158.63;77.63;;;;;;;14.40;nan;95170.31;5071266;28;20263;-69
2023/01/09 07:28:11;;;;;;;134.43;69.57;;;;;;;14.94;nan;95176.28;5070919;28;20198;-69
2023/01/09 07:30:38;;;;;;;89.25;51.13;;;;;;;14.05;nan;95174.50;5071457;28;20202;-69
2023/01/09 07:33:05;;;;;;;82.85;48.40;;;;;;;12.85;nan;95183.03;5070725;28;20198;-68
2023/01/09 07:35:33;;;;;;;90.32;51.25;;;;;;;13.05;nan;95184.78;5071810;28;20255;-71
2023/01/09 07:37:59;;;;;;;84.07;46.95;;;;;;;13.30;nan;95182.06;5070828;28;20226;-68
2023/01/09 07:40:26;;;;;;;82.78;45.05;;;;;;;13.86;nan;95178.75;5071271;28;20202;-69
2023/01/09 07:42:53;;;;;;;71.38;42.47;;;;;;;13.22;nan;95184.09;5070767;28;20289;-68
2023/01/09 07:45:20;;;;;;;69.07;41.03;;;;;;;12.20;nan;95188.97;5070737;28;20256;-69
2023/01/09 07:47:47;;;;;;;66.47;39.10;;;;;;;11.19;nan;95185.81;5070935;28;20198;-68
2023/01/09 07:50:14;;;;;;;72.22;38.83;;;;;;;10.62;nan;95198.75;5070883;28;20207;-69
2023/01/09 07:52:44;;;;;;;52.60;35.92;;;;;;;11.02;nan;95203.38;5070976;28;20195;-70
2023/01/09 07:55:11;;;;;;;59.63;35.00;;;;;;;10.97;nan;95210.31;5070752;28;20203;-68
2023/01/09 07:57:38;;;;;;;50.38;33.60;;;;;;;10.41;nan;95203.59;5071210;28;20643;-69
2023/01/09 08:00:07;;;;;;;63.67;35.63;;;;;;;9.89;nan;95207.66;5070618;28;20564;-69
2023/01/09 08:02:34;;;;;;;67.10;37.42;;;;;;;9.47;nan;95213.91;5070355;28;20683;-70
2023/01/09 08:05:01;;;;;;;66.35;37.38;;;;;;;9.02;nan;95215.94;5070442;28;20263;-68
2023/01/09 08:07:28;;;;;;;105.22;58.30;;;;;;;8.42;nan;95214.81;5070512;28;20201;-70
2023/01/09 08:09:56;;;;;;;124.47;71.28;;;;;;;8.08;nan;95219.78;5069512;28;20205;-70
2023/01/09 08:12:23;;;;;;;138.60;73.93;;;;;;;8.01;nan;95218.25;5070489;28;20242;-70
2023/01/09 08:14:50;;;;;;;132.35;69.20;;;;;;;7.91;nan;95214.25;5070404;28;20737;-70
2023/01/09 08:17:17;;;;;;;131.90;64.40;;;;;;;8.04;nan;95223.25;5070128;28;20672;-70
2023/01/09 08:19:44;;;;;;;143.52;70.65;;;;;;;7.76;nan;95220.44;5070006;28;20698;-71
2023/01/09 08:22:11;;;;;;;128.27;64.53;;;;;;;7.65;nan;95224.06;5070386;28;20199;-70
2023/01/09 08:24:37;;;;;;;113.07;59.55;;;;;;;7.55;nan;95217.50;5070758;28;20195;-69
2023/01/09 08:27:05;;;;;;;107.18;54.15;;;;;;;7.57;nan;95216.63;5070094;28;20668;-69
2023/01/09 08:29:32;;;;;;;88.35;47.35;;;;;;;7.62;nan;95214.00;5070125;28;20199;-69
2023/01/09 08:31:59;;;;;;;80.03;43.88;;;;;;;7.58;nan;95217.44;5086212;28;20235;-68
2023/01/09 08:34:25;;;;;;;90.97;45.80;;;;;;;7.37;nan;95222.06;5090361;28;20674;-68
2023/01/09 08:39:27;;;;;;;85.80;42.35;;;;;;;7.10;nan;95227.63;5311363;22;20234;-69
2023/01/09 08:47:24;;;;;;;61.90;36.63;;;;;;;7.45;nan;95217.69;5004160;28;20887;-69
2023/01/09 08:49:51;;;;;;;63.95;38.85;;;;;;;8.00;nan;95201.38;5003620;28;20205;-72
2023/01/09 08:52:18;;;;;;;63.17;39.17;;;;;;;8.76;nan;95199.66;5006790;28;20689;-70
2023/01/09 08:54:45;;;;;;;59.35;38.70;;;;;;;9.39;nan;95193.84;5005587;28;20211;-71
2023/01/09 08:57:12;;;;;;;60.38;36.85;;;;;;;9.70;nan;95190.44;5005645;28;20462;-72
2023/01/09 08:59:40;;;;;;;61.17;37.15;;;;;;;10.00;nan;95189.56;5006677;28;20266;-73
2023/01/09 09:02:07;;;;;;;61.45;32.78;;;;;;;9.92;nan;95191.50;5011625;28;20210;-71
2023/01/09 09:04:33;;;;;;;55.00;33.10;;;;;;;9.66;nan;95183.78;5005385;28;20214;-70
2023/01/09 09:07:00;;;;;;;65.70;33.75;;;;;;;9.41;nan;95183.63;5005144;28;20203;-72
2023/01/09 09:09:27;;;;;;;60.88;34.53;;;;;;;8.69;nan;95182.94;5003834;28;20203;-70
2023/01/09 09:11:54;;;;;;;55.30;33.92;;;;;;;8.23;nan;95177.25;5004727;28;20226;-71
2023/01/09 09:17:06;;;;;;;64.10;35.17;;;;;;;7.62;nan;95164.25;5005461;28;20240;-71
2023/01/09 09:19:33;;;;;;;60.40;35.75;;;;;;;7.75;nan;95155.53;5005325;28;20242;-72
2023/01/09 09:21:59;;;;;;;74.80;36.47;;;;;;;7.95;nan;95162.69;5008671;28;20202;-72
2023/01/09 09:24:26;;;;;;;70.45;35.80;;;;;;;8.08;nan;95148.91;5010097;28;20973;-71
2023/01/09 09:26:53;;;;;;;66.57;34.97;;;;;;;8.16;nan;95139.47;5009389;28;20203;-69
2023/01/09 09:29:19;;;;;;;53.75;32.63;;;;;;;8.37;nan;95139.84;5009136;28;21202;-72
2023/01/09 09:31:46;;;;;;;52.10;30.95;;;;;;;8.52;nan;95130.16;5008867;28;20297;-72
2023/01/09 09:34:14;;;;;;;63.38;31.77;;;;;;;8.40;nan;95137.25;5010397;28;20211;-71
2023/01/09 09:36:41;;;;;;;66.35;30.73;;;;;;;8.13;nan;95126.88;5010813;28;20207;-72
2023/01/09 09:39:08;;;;;;;56.58;30.67;;;;;;;8.14;nan;95120.94;5008244;28;20245;-71
2023/01/09 09:45:03;;;;;;;49.65;28.77;;;;;;;7.75;nan;95088.94;4977150;28;20252;-71
2023/01/09 09:47:43;;;;;;;64.10;32.85;;;;;;;7.90;nan;95093.66;5011540;28;20286;-70
2023/01/09 09:50:30;;;;;;;56.42;29.60;;;;;;;8.29;nan;95081.75;5010154;28;20214;-70
2023/01/09 09:53:06;;;;;;;41.78;23.95;;;;;;;8.47;nan;95073.72;5011775;28;20276;-71
2023/01/09 09:55:35;;;;;;;44.95;23.42;;;;;;;8.24;nan;95072.59;5011311;28;20215;-71
2023/01/09 09:58:06;;;;;;;31.48;18.25;;;;;;;8.31;nan;95058.94;5010930;28;20597;-71
2023/01/09 10:00:33;;;;;;;35.67;21.30;;;;;;;8.31;nan;95046.28;5008613;28;20206;-71
2023/01/09 10:03:04;;;;;;;38.90;20.77;;;;;;;8.17;nan;95047.44;5010507;28;20605;-71
2023/01/09 10:05:35;;;;;;;38.80;21.33;;;;;;;8.10;nan;95025.69;5011150;28;20207;-71
2023/01/09 10:08:05;;;;;;;30.52;19.02;;;;;;;8.15;nan;95035.72;5011319;28;20222;-70
2023/01/09 10:10:37;;;;;;;29.73;17.52;;;;;;;8.03;nan;95034.28;5008574;28;20310;-73
2023/01/09 10:14:03;;;;;;;33.88;18.80;;;;;;;8.12;nan;95021.44;5011533;28;20202;-70
2023/01/09 10:16:00;;;;;;;32.08;19.23;;;;;;;8.04;nan;95010.66;5008435;28;20199;-71
2023/01/09 10:18:40;;;;;;;27.20;17.50;;;;;;;7.85;nan;95011.97;5008802;28;20249;-68
2023/01/09 10:21:15;;;;;;;26.98;16.92;;;;;;;7.85;nan;95009.44;5007339;28;20611;-70
2023/01/09 10:23:59;;;;;;;30.50;19.08;;;;;;;7.89;nan;94995.84;5009051;28;20207;-72
2023/01/09 10:26:32;;;;;;;32.10;19.90;;;;;;;7.92;nan;94997.47;5011458;28;20206;-70
2023/01/09 10:29:50;;;;;;;36.10;20.25;;;;;;;8.18;nan;94990.88;5010045;28;20227;-70
2023/01/09 10:32:30;;;;;;;35.47;19.38;;;;;;;8.52;nan;94995.09;4980928;28;20261;-71
2023/01/09 10:35:19;;;;;;;36.53;20.58;;;;;;;8.99;nan;94992.97;5031069;28;20287;-68
2023/01/09 10:37:52;;;;;;;35.67;20.70;;;;;;;9.00;nan;94980.25;5032319;28;20659;-70
2023/01/09 10:40:24;;;;;;;39.05;22.17;;;;;;;9.20;nan;94967.81;5033033;28;20239;-70
2023/01/09 10:42:55;;;;;;;32.45;20.95;;;;;;;9.23;nan;94966.91;5033565;28;20261;-70
2023/01/09 10:45:28;;;;;;;33.42;19.92;;;;;;;9.11;nan;94960.50;5032555;28;20830;-69
2023/01/09 10:48:02;;;;;;;35.40;21.15;;;;;;;8.99;nan;94963.38;5033475;28;20207;-70
2023/01/09 10:50:33;;;;;;;30.90;18.55;;;;;;;8.69;nan;94960.00;5032408;28;20200;-70
2023/01/09 10:53:07;;;;;;;31.40;20.05;;;;;;;8.75;nan;94949.69;5032839;28;20266;-70
2023/01/09 10:55:39;;;;;;;29.92;16.33;;;;;;;8.78;nan;94951.31;5033198;28;20633;-71
2023/01/09 10:58:12;;;;;;;24.98;15.18;;;;;;;8.74;nan;94932.00;5032720;28;20246;-69
2023/01/09 11:00:40;;;;;;;31.48;15.88;;;;;;;8.66;nan;94934.75;5033116;28;20204;-70
2023/01/09 11:03:11;;;;;;;27.15;15.20;;;;;;;8.56;nan;94923.22;5033037;28;20210;-69
2023/01/09 11:05:38;;;;;;;25.70;15.77;;;;;;;8.41;nan;94913.53;5033073;28;20212;-70
2023/01/09 11:08:16;;;;;;;26.15;14.68;;;;;;;8.47;nan;94920.94;5033212;28;20222;-71
2023/01/09 11:10:49;;;;;;;23.35;15.43;;;;;;;8.44;nan;94921.03;5032494;28;20211;-70
2023/01/09 11:13:20;;;;;;;22.90;14.50;;;;;;;8.32;nan;94908.69;5033182;28;20614;-69
2023/01/09 11:15:47;;;;;;;21.25;14.70;;;;;;;8.15;nan;94916.75;5032556;28;20207;-69
2023/01/09 11:18:20;;;;;;;25.25;13.65;;;;;;;8.37;nan;94917.84;5032998;28;20200;-69
2023/01/09 11:20:46;;;;;;;26.98;13.23;;;;;;;8.27;nan;94911.34;5032547;28;20204;-71
2023/01/09 11:23:31;;;;;;;19.00;13.38;;;;;;;8.34;nan;94917.09;5032772;28;20557;-72
2023/01/09 11:26:00;;;;;;;24.25;14.13;;;;;;;8.32;nan;94903.63;5031005;28;20265;-69
2023/01/09 11:28:28;;;;;;;22.00;13.27;;;;;;;8.39;nan;94900.09;5032827;28;20204;-69
2023/01/09 11:30:58;;;;;;;24.38;14.57;;;;;;;8.37;nan;94900.13;5032437;28;20250;-70
2023/01/09 11:33:27;;;;;;;18.15;12.32;;;;;;;8.41;nan;94893.28;5032429;28;20210;-70
2023/01/09 11:36:01;;;;;;;23.55;13.68;;;;;;;8.29;nan;94898.63;5032250;28;20699;-69
2023/01/09 11:38:30;;;;;;;23.00;14.00;;;;;;;8.38;nan;94893.38;5032334;28;20296;-69
2023/01/09 11:41:00;;;;;;;19.73;13.63;;;;;;;8.59;nan;94889.41;5032193;28;20249;-70
2023/01/09 11:43:31;;;;;;;22.83;14.98;;;;;;;8.60;nan;94886.00;5031951;28;20199;-70
2023/01/09 11:46:00;;;;;;;22.02;13.35;;;;;;;8.58;nan;94888.56;5031756;28;20195;-69
2023/01/09 11:48:39;;;;;;;26.73;13.82;;;;;;;8.42;nan;94877.19;5032301;28;20195;-71
2023/01/09 11:51:17;;;;;;;26.10;14.93;;;;;;;8.28;nan;94884.31;5031788;28;20199;-69
2023/01/09 11:54:07;;;;;;;24.30;14.70;;;;;;;8.22;nan;94887.84;5032196;28;20290;-69
2023/01/09 11:56:36;;;;;;;25.15;14.68;;;;;;;8.14;nan;94883.00;5032105;28;20203;-70
2023/01/09 11:59:09;;;;;;;19.48;14.02;;;;;;;8.14;nan;94887.25;5031933;28;20224;-70
2023/01/09 12:02:05;;;;;;;18.02;12.98;;;;;;;8.05;nan;94875.66;5031895;28;20203;-70
2023/01/09 12:04:38;;;;;;;21.15;13.38;;;;;;;7.94;nan;94872.56;5032200;28;20628;-69
2023/01/09 12:07:35;;;;;;;22.45;14.40;;;;;;;7.91;nan;94870.16;5031923;28;20195;-69
2023/01/09 12:10:11;;;;;;;23.98;14.88;;;;;;;7.98;nan;94848.84;5026833;28;20249;-69
2023/01/09 12:12:49;;;;;;;29.75;14.77;;;;;;;8.05;nan;94860.47;5031541;28;20257;-69